Time;durP1;ratioP1;P1;durP2;ratioP2;P2;SDS_P1;SDS_P2;PMS_P1;PMS_P2;Temp;Humidity;BMP_temperature;BMP_pressure;BME280_temperature;BME280_humidity;BME280_pressure;Samples;Min_cycle;Max_cycle;Signal;HPM_P1;HPM_P2
2023/12/19 00:00:59;;;;;;;16.33;14.67;;;6.10;99.90;;;;;;4975611;28;20527;-62
2023/12/19 00:03:29;;;;;;;17.17;15.40;;;6.10;99.90;;;;;;4992504;28;20213;-62
2023/12/19 00:05:56;;;;;;;19.67;15.90;;;6.10;99.90;;;;;;4972231;28;20190;-61
2023/12/19 00:08:23;;;;;;;18.23;14.80;;;6.10;99.90;;;;;;4984128;28;20190;-61
2023/12/19 00:10:50;;;;;;;16.73;15.03;;;6.10;99.90;;;;;;4990235;28;20193;-69
2023/12/19 00:13:17;;;;;;;17.17;14.80;;;6.10;99.90;;;;;;4987226;28;20225;-69
2023/12/19 00:15:44;;;;;;;15.40;14.00;;;6.10;99.90;;;;;;4974012;28;20662;-71
2023/12/19 00:18:11;;;;;;;16.30;14.60;;;6.20;99.90;;;;;;4973672;28;20662;-67
2023/12/19 00:20:39;;;;;;;17.07;15.27;;;6.20;99.90;;;;;;4988927;28;20216;-69
2023/12/19 00:23:05;;;;;;;17.50;15.33;;;6.20;99.90;;;;;;4986453;28;20830;-69
2023/12/19 00:25:32;;;;;;;19.83;15.33;;;6.20;99.90;;;;;;4955659;28;20671;-70
2023/12/19 00:28:00;;;;;;;19.60;14.67;;;6.20;99.90;;;;;;4975455;28;20301;-70
2023/12/19 00:30:27;;;;;;;16.47;14.50;;;6.20;99.90;;;;;;4984325;28;20653;-70
2023/12/19 00:32:55;;;;;;;19.57;15.33;;;6.20;99.90;;;;;;4985936;28;20194;-70
2023/12/19 00:35:22;;;;;;;16.67;14.87;;;6.20;99.90;;;;;;4987850;28;20192;-70
2023/12/19 00:37:49;;;;;;;16.37;14.67;;;6.20;99.90;;;;;;4975247;28;20591;-70
2023/12/19 00:40:16;;;;;;;18.47;16.20;;;6.20;99.90;;;;;;4990264;28;20558;-70
2023/12/19 00:42:43;;;;;;;19.40;16.67;;;6.20;99.90;;;;;;4989706;28;20742;-70
2023/12/19 00:45:11;;;;;;;20.03;17.80;;;6.20;99.90;;;;;;4986086;28;20280;-69
2023/12/19 00:47:39;;;;;;;16.87;15.17;;;6.20;99.90;;;;;;4989561;28;20700;-70
2023/12/19 00:50:09;;;;;;;17.77;15.63;;;6.10;99.90;;;;;;4986921;28;20206;-69
2023/12/19 00:52:36;;;;;;;16.20;14.70;;;6.20;99.90;;;;;;5006803;28;20189;-70
2023/12/19 00:55:04;;;;;;;16.27;13.43;;;6.20;99.90;;;;;;4990006;28;20232;-68
2023/12/19 00:57:32;;;;;;;17.10;14.80;;;6.20;99.90;;;;;;4988690;28;20701;-68
2023/12/19 00:59:59;;;;;;;15.50;13.87;;;6.20;99.90;;;;;;4988653;28;20214;-69
2023/12/19 01:02:31;;;;;;;17.47;15.50;;;6.10;99.90;;;;;;4988925;28;20639;-69
2023/12/19 01:04:58;;;;;;;16.73;15.07;;;6.10;99.90;;;;;;4970425;28;20209;-70
2023/12/19 01:07:25;;;;;;;16.27;14.70;;;6.10;99.90;;;;;;4983809;28;20398;-70
2023/12/19 01:09:52;;;;;;;16.43;14.73;;;6.10;99.90;;;;;;5000850;28;20316;-61
2023/12/19 01:12:20;;;;;;;15.83;14.33;;;6.10;99.90;;;;;;4987569;28;20225;-61
2023/12/19 01:14:47;;;;;;;13.70;12.40;;;6.10;99.90;;;;;;4990057;28;20194;-61
2023/12/19 01:17:14;;;;;;;15.33;13.70;;;6.00;99.90;;;;;;4986747;28;20198;-61
2023/12/19 01:19:41;;;;;;;14.50;13.07;;;6.00;99.90;;;;;;4983073;28;20216;-71
2023/12/19 01:22:08;;;;;;;13.60;11.77;;;6.00;99.90;;;;;;4986475;28;20317;-71
2023/12/19 01:24:35;;;;;;;14.93;12.53;;;6.00;99.90;;;;;;4972289;28;20197;-70
2023/12/19 01:27:03;;;;;;;15.40;13.80;;;5.90;99.90;;;;;;4996177;28;20818;-70
2023/12/19 01:29:30;;;;;;;15.43;13.27;;;5.90;99.90;;;;;;4991974;28;20189;-70
2023/12/19 01:31:57;;;;;;;13.87;12.57;;;5.90;99.90;;;;;;5009274;28;20211;-70
2023/12/19 01:34:24;;;;;;;14.53;13.10;;;5.90;99.90;;;;;;4991473;28;20461;-70
2023/12/19 01:36:51;;;;;;;14.20;12.90;;;5.90;99.90;;;;;;4999007;28;20200;-71
2023/12/19 01:39:24;;;;;;;13.23;11.93;;;5.90;99.90;;;;;;5010237;28;20215;-71
2023/12/19 01:41:51;;;;;;;13.03;11.73;;;5.90;99.90;;;;;;5005493;28;20204;-71
2023/12/19 01:44:19;;;;;;;13.10;11.90;;;5.90;99.90;;;;;;5013731;28;20197;-69
2023/12/19 01:46:47;;;;;;;12.53;11.37;;;5.90;99.90;;;;;;4995055;28;20205;-70
2023/12/19 01:49:14;;;;;;;12.73;11.43;;;5.90;99.90;;;;;;4990247;28;20207;-71
2023/12/19 01:51:42;;;;;;;12.43;11.30;;;5.90;99.90;;;;;;5005932;28;20199;-70
2023/12/19 01:54:10;;;;;;;12.77;11.57;;;5.90;99.90;;;;;;5003132;28;20497;-71
2023/12/19 01:56:38;;;;;;;13.00;11.70;;;6.00;99.90;;;;;;4970525;28;20208;-71
2023/12/19 01:59:06;;;;;;;12.57;11.53;;;6.00;99.90;;;;;;5007815;28;20223;-71
2023/12/19 02:01:37;;;;;;;12.30;11.30;;;5.90;99.90;;;;;;4972284;28;20658;-70
2023/12/19 02:04:06;;;;;;;12.73;11.63;;;6.00;99.90;;;;;;4975206;28;20208;-70
2023/12/19 02:06:34;;;;;;;12.97;11.70;;;6.00;99.90;;;;;;4990955;28;20219;-71
2023/12/19 02:09:01;;;;;;;12.40;11.20;;;6.10;99.90;;;;;;4979780;28;20770;-70
2023/12/19 02:11:29;;;;;;;12.30;11.20;;;6.10;99.90;;;;;;4971584;28;20358;-69
2023/12/19 02:13:58;;;;;;;12.17;10.97;;;6.10;99.90;;;;;;4986208;28;20216;-71
2023/12/19 02:16:26;;;;;;;12.50;11.40;;;6.10;99.90;;;;;;5009669;28;20189;-69
2023/12/19 02:19:03;;;;;;;11.83;10.73;;;6.10;99.90;;;;;;5016946;28;20220;-61
2023/12/19 02:21:31;;;;;;;11.97;10.97;;;6.10;99.90;;;;;;5004750;28;20221;-63
2023/12/19 02:23:58;;;;;;;13.97;11.00;;;6.10;99.90;;;;;;5005742;28;20189;-63
2023/12/19 02:26:26;;;;;;;12.20;11.13;;;6.10;99.90;;;;;;4992909;28;20193;-63
2023/12/19 02:28:53;;;;;;;12.20;11.13;;;6.10;99.90;;;;;;4992228;28;20267;-70
2023/12/19 02:31:20;;;;;;;12.57;11.23;;;6.10;99.90;;;;;;5009633;28;20192;-69
2023/12/19 02:33:48;;;;;;;13.03;11.67;;;6.10;99.90;;;;;;4991625;28;20288;-69
2023/12/19 02:36:16;;;;;;;12.47;11.37;;;6.20;99.90;;;;;;4996745;28;20216;-67
2023/12/19 02:38:43;;;;;;;11.77;10.77;;;6.20;99.90;;;;;;5009485;28;20684;-66
2023/12/19 02:41:10;;;;;;;12.80;11.60;;;6.20;99.90;;;;;;4984650;28;20308;-68
2023/12/19 02:43:38;;;;;;;12.30;11.20;;;6.20;99.90;;;;;;5005972;28;20189;-68
2023/12/19 02:46:22;;;;;;;11.87;10.87;;;6.20;99.90;;;;;;5007868;28;20189;-70
2023/12/19 02:48:49;;;;;;;12.60;11.30;;;6.20;99.90;;;;;;4981129;28;20293;-69
2023/12/19 02:51:20;;;;;;;11.83;10.73;;;6.20;99.90;;;;;;4983013;28;20196;-68
2023/12/19 02:53:47;;;;;;;11.77;10.83;;;6.20;99.90;;;;;;4988573;28;20255;-69
2023/12/19 02:56:14;;;;;;;12.20;11.20;;;6.20;99.90;;;;;;5009246;28;20216;-68
2023/12/19 02:58:42;;;;;;;11.83;10.93;;;6.20;99.90;;;;;;5006469;28;20734;-70
2023/12/19 03:05:09;;;;;;;12.50;11.33;;;6.20;99.90;;;;;;5003722;28;20633;-69
2023/12/19 03:07:36;;;;;;;11.60;10.50;;;6.20;99.90;;;;;;4989931;28;20580;-70
2023/12/19 03:10:07;;;;;;;12.37;11.27;;;6.20;99.90;;;;;;5007168;28;20291;-70
2023/12/19 03:12:35;;;;;;;12.97;11.77;;;6.20;99.90;;;;;;4989662;28;20562;-71
2023/12/19 03:15:03;;;;;;;12.60;11.27;;;6.20;99.90;;;;;;4988748;28;20200;-70
2023/12/19 03:17:30;;;;;;;12.63;11.53;;;6.20;99.90;;;;;;4987632;28;20196;-70
2023/12/19 03:19:57;;;;;;;12.70;11.67;;;6.20;99.90;;;;;;4999287;28;20986;-70
2023/12/19 03:22:24;;;;;;;12.03;11.03;;;6.20;99.90;;;;;;4987333;28;20204;-69
2023/12/19 03:24:51;;;;;;;12.10;11.00;;;6.20;99.90;;;;;;5006839;28;20201;-68
2023/12/19 03:27:18;;;;;;;11.70;10.73;;;6.20;99.90;;;;;;4990662;28;20592;-68
2023/12/19 03:29:45;;;;;;;12.23;11.13;;;6.20;99.90;;;;;;5005148;28;20201;-62
2023/12/19 03:32:12;;;;;;;11.63;10.53;;;6.20;99.90;;;;;;4991110;28;20217;-62
2023/12/19 03:34:39;;;;;;;12.40;11.20;;;6.20;99.90;;;;;;5009119;28;20201;-62
2023/12/19 03:37:07;;;;;;;12.27;11.07;;;6.20;99.90;;;;;;5000743;28;20684;-61
2023/12/19 03:39:34;;;;;;;12.93;11.83;;;6.20;99.90;;;;;;4994691;28;20201;-60
2023/12/19 03:42:00;;;;;;;12.43;11.13;;;6.10;99.90;;;;;;5012670;28;20193;-61
2023/12/19 03:44:41;;;;;;;11.93;10.80;;;6.10;99.90;;;;;;5015271;28;20247;-63
2023/12/19 03:47:13;;;;;;;12.40;11.30;;;6.10;99.90;;;;;;4995433;28;20935;-61
2023/12/19 03:49:40;;;;;;;12.53;11.43;;;6.10;99.90;;;;;;5010038;28;20257;-61
2023/12/19 03:52:11;;;;;;;12.03;11.13;;;6.20;99.90;;;;;;4993210;28;20196;-62
2023/12/19 03:54:37;;;;;;;12.93;11.83;;;6.20;99.90;;;;;;4994825;28;20205;-63
2023/12/19 03:57:05;;;;;;;12.80;11.50;;;6.20;99.90;;;;;;4995582;28;20224;-62
2023/12/19 03:59:32;;;;;;;13.33;11.77;;;6.20;99.90;;;;;;5012100;28;20216;-63
2023/12/19 04:01:59;;;;;;;12.73;11.70;;;6.20;99.90;;;;;;5007283;28;20189;-62
2023/12/19 04:04:27;;;;;;;12.43;11.37;;;6.20;99.90;;;;;;4989400;28;20201;-62
2023/12/19 04:06:54;;;;;;;13.10;11.90;;;6.30;99.90;;;;;;5011254;28;20216;-62
2023/12/19 04:09:21;;;;;;;12.37;11.37;;;6.20;99.90;;;;;;5010852;28;20574;-63
2023/12/19 04:11:49;;;;;;;13.47;12.27;;;6.20;99.90;;;;;;4994369;28;20199;-62
2023/12/19 04:14:16;;;;;;;12.63;11.60;;;6.20;99.90;;;;;;5011889;28;20189;-62
2023/12/19 04:16:43;;;;;;;12.83;11.73;;;6.20;99.90;;;;;;4992929;28;20220;-63
2023/12/19 04:19:10;;;;;;;12.00;10.90;;;6.30;99.90;;;;;;4999402;28;20224;-62
2023/12/19 04:21:37;;;;;;;12.37;11.27;;;6.20;99.90;;;;;;5010990;28;20186;-61
2023/12/19 04:24:05;;;;;;;11.97;10.77;;;6.20;99.90;;;;;;5011240;28;20199;-61
2023/12/19 04:26:32;;;;;;;11.07;10.10;;;6.10;99.90;;;;;;4994415;28;20203;-62
2023/12/19 04:28:59;;;;;;;12.17;11.07;;;6.20;99.90;;;;;;4994675;28;20291;-62
2023/12/19 04:31:26;;;;;;;12.13;11.03;;;6.20;99.90;;;;;;4987069;28;20252;-63
2023/12/19 04:33:53;;;;;;;12.53;11.20;;;6.20;99.90;;;;;;5009588;28;20275;-62
2023/12/19 04:36:25;;;;;;;12.23;11.00;;;6.20;99.90;;;;;;4996100;28;20673;-61
2023/12/19 04:38:52;;;;;;;13.20;11.93;;;6.10;99.90;;;;;;5012789;28;20233;-69
2023/12/19 04:41:19;;;;;;;12.70;11.50;;;6.10;99.90;;;;;;5012709;28;20433;-69
2023/12/19 04:43:46;;;;;;;16.00;12.23;;;6.20;99.90;;;;;;4994896;28;20281;-70
2023/12/19 04:46:13;;;;;;;14.03;12.27;;;6.10;99.90;;;;;;5011676;28;20201;-68
2023/12/19 04:48:43;;;;;;;14.40;12.97;;;6.20;99.90;;;;;;4962428;28;20201;-60
2023/12/19 04:51:22;;;;;;;18.70;14.70;;;6.20;99.90;;;;;;4995211;28;20224;-68
2023/12/19 04:53:49;;;;;;;13.03;11.67;;;6.20;99.90;;;;;;4989846;28;20216;-68
2023/12/19 04:56:16;;;;;;;17.17;12.80;;;6.20;99.90;;;;;;4994801;28;20665;-69
2023/12/19 04:58:46;;;;;;;14.77;13.17;;;6.20;99.90;;;;;;4995474;28;20677;-69
2023/12/19 05:01:13;;;;;;;15.87;14.20;;;6.20;99.90;;;;;;5012619;28;20231;-68
2023/12/19 05:03:41;;;;;;;18.73;13.97;;;6.20;99.90;;;;;;5011513;28;20199;-70
2023/12/19 05:06:16;;;;;;;20.13;12.87;;;6.20;99.90;;;;;;4995456;28;20308;-69
2023/12/19 05:08:45;;;;;;;17.70;12.63;;;6.30;99.90;;;;;;5013728;28;20243;-69
2023/12/19 05:11:12;;;;;;;19.17;14.27;;;6.30;99.90;;;;;;4987281;28;20202;-68
2023/12/19 05:13:39;;;;;;;16.70;14.93;;;6.30;99.90;;;;;;5008076;28;20211;-69
2023/12/19 05:16:13;;;;;;;15.47;13.83;;;6.30;99.90;;;;;;5012346;28;20197;-69
2023/12/19 05:18:41;;;;;;;15.43;13.73;;;6.40;99.90;;;;;;5010356;28;20192;-69
2023/12/19 05:21:10;;;;;;;16.33;14.20;;;6.40;99.90;;;;;;5002548;28;20600;-70
2023/12/19 05:23:38;;;;;;;15.83;14.20;;;6.40;99.90;;;;;;5010707;28;20542;-72
2023/12/19 05:26:07;;;;;;;18.80;14.50;;;6.40;99.90;;;;;;4994238;28;20197;-65
2023/12/19 05:28:36;;;;;;;16.60;14.80;;;6.50;99.90;;;;;;4998709;28;20225;-64
2023/12/19 05:31:03;;;;;;;14.93;13.33;;;6.40;99.90;;;;;;5004707;28;20226;-62
2023/12/19 05:33:33;;;;;;;13.43;11.83;;;6.40;99.90;;;;;;5004130;28;20189;-61
2023/12/19 05:36:00;;;;;;;16.20;13.07;;;6.40;99.90;;;;;;5005598;28;20255;-62
2023/12/19 05:38:30;;;;;;;15.53;12.13;;;6.30;99.90;;;;;;4991733;28;20193;-63
2023/12/19 05:40:57;;;;;;;14.80;12.97;;;6.40;99.90;;;;;;5018986;28;20279;-64
2023/12/19 05:43:24;;;;;;;19.40;13.43;;;6.30;99.90;;;;;;5010765;28;20291;-62
2023/12/19 05:45:52;;;;;;;13.67;12.30;;;6.30;99.90;;;;;;5011677;28;20215;-64
2023/12/19 05:48:22;;;;;;;14.60;12.90;;;6.40;99.90;;;;;;5011612;28;20204;-63
2023/12/19 05:50:51;;;;;;;13.90;11.43;;;6.40;99.90;;;;;;4990872;28;20485;-63
2023/12/19 05:53:18;;;;;;;16.53;13.93;;;6.40;99.90;;;;;;4975500;28;20200;-63
2023/12/19 05:55:45;;;;;;;14.67;12.30;;;6.40;99.90;;;;;;5009977;28;20209;-63
2023/12/19 05:58:13;;;;;;;12.57;11.37;;;6.40;99.90;;;;;;4993041;28;20200;-63
2023/12/19 06:00:40;;;;;;;15.67;12.37;;;6.40;99.90;;;;;;5011318;28;20519;-64
2023/12/19 06:03:09;;;;;;;14.13;12.63;;;6.40;99.90;;;;;;4976414;28;20300;-64
2023/12/19 06:05:39;;;;;;;14.33;12.10;;;6.40;99.90;;;;;;4991145;28;20728;-64
2023/12/19 06:08:07;;;;;;;13.97;12.37;;;6.40;99.90;;;;;;4991654;28;20295;-63
2023/12/19 06:10:34;;;;;;;14.93;11.90;;;6.50;99.90;;;;;;5007723;28;20197;-63
2023/12/19 06:13:01;;;;;;;14.70;12.40;;;6.50;99.90;;;;;;4992653;28;20191;-63
2023/12/19 06:15:28;;;;;;;14.40;12.07;;;6.50;99.90;;;;;;5010583;28;20633;-62
2023/12/19 06:17:55;;;;;;;12.87;11.57;;;6.40;99.90;;;;;;4991745;28;20192;-62
2023/12/19 06:20:22;;;;;;;13.23;11.90;;;6.50;99.90;;;;;;5003089;28;20251;-63
2023/12/19 06:22:49;;;;;;;13.53;11.93;;;6.40;99.90;;;;;;5007796;28;20193;-63
2023/12/19 06:25:17;;;;;;;12.33;10.47;;;6.50;99.90;;;;;;4990223;28;20267;-62
2023/12/19 06:27:44;;;;;;;12.40;11.20;;;6.50;99.90;;;;;;5009060;28;20357;-62
2023/12/19 06:30:12;;;;;;;12.83;10.83;;;6.50;99.90;;;;;;5008768;28;20723;-62
2023/12/19 06:32:53;;;;;;;12.10;10.90;;;6.50;99.90;;;;;;5007553;28;20682;-63
2023/12/19 06:35:20;;;;;;;12.30;10.33;;;6.50;99.90;;;;;;4989524;28;20520;-62
2023/12/19 06:37:47;;;;;;;13.97;10.33;;;6.50;99.90;;;;;;4993518;28;20220;-62
2023/12/19 06:40:15;;;;;;;17.63;14.33;;;6.50;99.90;;;;;;5010865;28;20295;-62
2023/12/19 06:42:42;;;;;;;11.83;10.67;;;6.60;99.90;;;;;;4990884;28;20193;-62
2023/12/19 06:45:12;;;;;;;13.00;10.73;;;6.60;99.90;;;;;;4987047;28;20198;-65
2023/12/19 06:47:39;;;;;;;11.47;10.37;;;6.50;99.90;;;;;;4987254;28;20193;-64
2023/12/19 06:50:07;;;;;;;11.00;9.90;;;6.50;99.90;;;;;;4985447;28;20216;-63
2023/12/19 06:52:34;;;;;;;11.17;9.80;;;6.60;99.90;;;;;;4975908;28;20227;-63
2023/12/19 06:55:01;;;;;;;11.73;10.30;;;6.50;99.90;;;;;;4992692;28;20205;-62
2023/12/19 06:57:28;;;;;;;14.50;9.83;;;6.50;99.90;;;;;;4993493;28;20200;-62
2023/12/19 06:59:55;;;;;;;12.57;10.07;;;6.60;99.90;;;;;;4993266;28;20228;-64
2023/12/19 07:02:22;;;;;;;11.47;10.20;;;6.60;99.90;;;;;;4993956;28;20646;-64
2023/12/19 07:04:49;;;;;;;11.07;10.03;;;6.60;99.90;;;;;;4992639;28;20280;-63
2023/12/19 07:07:16;;;;;;;11.40;10.20;;;6.60;99.90;;;;;;4993664;28;20279;-63
2023/12/19 07:09:43;;;;;;;10.77;9.77;;;6.60;99.90;;;;;;4995440;28;20243;-63
2023/12/19 07:12:10;;;;;;;9.60;8.70;;;6.70;99.90;;;;;;4996299;28;20299;-62
2023/12/19 07:14:38;;;;;;;11.97;8.77;;;6.70;99.90;;;;;;4996040;28;20224;-61
2023/12/19 07:17:05;;;;;;;10.73;8.93;;;6.70;99.90;;;;;;4995135;28;20299;-63
2023/12/19 07:19:32;;;;;;;10.23;9.20;;;6.70;99.90;;;;;;5009607;28;20616;-61
2023/12/19 07:22:01;;;;;;;9.33;8.43;;;6.60;99.90;;;;;;5012877;28;20213;-62
2023/12/19 07:24:29;;;;;;;10.33;9.33;;;6.70;99.90;;;;;;5010903;28;20505;-63
2023/12/19 07:26:58;;;;;;;9.40;8.50;;;6.70;99.90;;;;;;4966670;28;20248;-63
2023/12/19 07:29:26;;;;;;;9.67;8.77;;;6.70;99.90;;;;;;4995688;28;20700;-63
2023/12/19 07:31:53;;;;;;;10.50;9.50;;;6.80;99.90;;;;;;5014050;28;20276;-64
2023/12/19 07:34:20;;;;;;;9.73;8.77;;;6.80;99.90;;;;;;5013480;28;20185;-65
2023/12/19 07:36:47;;;;;;;10.43;9.13;;;6.80;99.90;;;;;;5004400;28;20256;-63
2023/12/19 07:39:14;;;;;;;10.60;9.43;;;6.80;99.90;;;;;;5013384;28;20311;-64
2023/12/19 07:41:41;;;;;;;12.97;9.87;;;6.80;99.90;;;;;;4985219;28;20331;-64
2023/12/19 07:44:09;;;;;;;9.97;9.07;;;6.90;99.90;;;;;;5013599;28;20519;-63
2023/12/19 07:46:41;;;;;;;10.03;9.03;;;6.90;99.90;;;;;;4995956;28;20190;-64
2023/12/19 07:49:11;;;;;;;9.73;8.83;;;6.90;99.90;;;;;;4995929;28;20185;-64
2023/12/19 07:51:38;;;;;;;9.67;8.67;;;7.00;99.90;;;;;;4978056;28;20228;-64
2023/12/19 07:54:06;;;;;;;9.73;8.80;;;7.00;99.90;;;;;;5012404;28;20685;-61
2023/12/19 07:56:33;;;;;;;11.47;9.83;;;7.00;99.90;;;;;;4991537;28;20192;-61
2023/12/19 07:59:00;;;;;;;9.97;9.03;;;7.00;99.90;;;;;;5011593;28;20204;-62
2023/12/19 08:01:28;;;;;;;9.57;8.67;;;7.10;99.90;;;;;;5012552;28;20263;-61
2023/12/19 08:03:55;;;;;;;9.87;8.97;;;7.10;99.90;;;;;;4994493;28;20196;-62
2023/12/19 08:06:22;;;;;;;10.33;9.13;;;7.10;99.90;;;;;;4994959;28;20288;-61
2023/12/19 08:08:52;;;;;;;10.80;9.70;;;7.10;99.90;;;;;;5012399;28;20203;-68
2023/12/19 08:11:19;;;;;;;13.40;10.60;;;7.10;99.90;;;;;;5013982;28;20224;-69
2023/12/19 08:13:50;;;;;;;10.60;9.60;;;7.10;99.90;;;;;;4975173;28;20324;-69
2023/12/19 08:16:17;;;;;;;10.57;9.47;;;7.10;99.90;;;;;;4995956;28;20205;-68
2023/12/19 08:18:44;;;;;;;9.93;9.00;;;7.10;99.90;;;;;;5012079;28;20267;-69
2023/12/19 08:21:12;;;;;;;10.93;9.83;;;7.10;99.90;;;;;;5012621;28;20655;-66
2023/12/19 08:23:40;;;;;;;11.20;9.87;;;7.10;99.90;;;;;;4995001;28;20678;-71
2023/12/19 08:26:10;;;;;;;10.87;9.87;;;7.10;99.90;;;;;;5013273;28;20546;-69
2023/12/19 08:28:37;;;;;;;11.03;9.93;;;7.10;99.90;;;;;;4994410;28;20241;-69
2023/12/19 08:31:04;;;;;;;10.97;9.87;;;7.10;99.90;;;;;;5011563;28;20193;-68
2023/12/19 08:33:31;;;;;;;11.43;10.23;;;7.10;99.90;;;;;;5013752;28;20263;-69
2023/12/19 08:35:58;;;;;;;10.00;9.00;;;7.20;99.90;;;;;;4996435;28;20248;-68
2023/12/19 08:38:25;;;;;;;10.20;9.20;;;7.20;99.90;;;;;;4994365;28;20193;-68
2023/12/19 08:40:52;;;;;;;10.30;9.30;;;7.20;99.90;;;;;;4995497;28;20205;-69
2023/12/19 08:43:19;;;;;;;10.47;9.47;;;7.20;99.90;;;;;;5009663;28;20197;-69
2023/12/19 08:45:48;;;;;;;11.70;10.33;;;7.10;99.90;;;;;;5012582;28;20666;-67
2023/12/19 08:48:17;;;;;;;10.00;9.20;;;7.20;99.90;;;;;;4965282;28;20209;-70
2023/12/19 08:50:44;;;;;;;10.53;9.53;;;7.20;99.90;;;;;;5015111;28;20236;-68
2023/12/19 08:53:12;;;;;;;10.87;9.77;;;7.20;99.90;;;;;;5011380;28;20601;-70
2023/12/19 08:55:42;;;;;;;10.27;9.47;;;7.20;99.90;;;;;;5012322;28;20552;-70
2023/12/19 08:58:09;;;;;;;11.57;10.57;;;7.30;99.90;;;;;;4993619;28;20886;-70
2023/12/19 09:00:36;;;;;;;12.50;11.30;;;7.30;99.90;;;;;;4994793;28;20213;-69
2023/12/19 09:03:05;;;;;;;12.37;11.20;;;7.30;99.90;;;;;;5001672;28;20248;-69
2023/12/19 09:05:33;;;;;;;12.23;11.30;;;7.30;99.90;;;;;;5011591;28;20193;-69
2023/12/19 09:08:00;;;;;;;12.90;11.80;;;7.40;99.90;;;;;;5018548;28;20193;-69
2023/12/19 09:10:28;;;;;;;12.47;11.37;;;7.40;99.90;;;;;;4994149;28;20776;-70
2023/12/19 09:12:55;;;;;;;12.33;11.23;;;7.30;99.90;;;;;;4978382;28;20341;-69
2023/12/19 09:15:22;;;;;;;11.53;10.63;;;7.30;99.90;;;;;;4994006;28;20262;-69
2023/12/19 09:17:49;;;;;;;11.50;10.60;;;7.40;99.90;;;;;;5011788;28;20204;-69
2023/12/19 09:20:17;;;;;;;11.10;10.20;;;7.30;99.90;;;;;;4994115;28;20224;-62
2023/12/19 09:22:44;;;;;;;12.50;11.40;;;7.40;99.90;;;;;;5008984;28;20522;-62
2023/12/19 09:25:14;;;;;;;11.93;10.93;;;7.40;99.90;;;;;;5015955;28;20260;-62
2023/12/19 09:27:43;;;;;;;11.90;10.90;;;7.40;99.90;;;;;;5009492;28;20236;-62
2023/12/19 09:30:11;;;;;;;11.83;10.93;;;7.40;99.90;;;;;;5006753;28;20278;-63
2023/12/19 09:32:42;;;;;;;12.17;10.87;;;7.40;99.90;;;;;;5004972;28;20193;-62
2023/12/19 09:35:13;;;;;;;11.13;10.23;;;7.40;99.90;;;;;;5010098;28;20209;-62
2023/12/19 09:37:40;;;;;;;11.17;10.07;;;7.40;99.90;;;;;;5003845;28;20540;-63
2023/12/19 09:40:17;;;;;;;11.03;10.13;;;7.40;99.90;;;;;;5010141;28;20743;-62
2023/12/19 09:42:44;;;;;;;10.40;9.60;;;7.40;99.90;;;;;;5005809;28;20312;-62
2023/12/19 09:45:14;;;;;;;9.97;9.17;;;7.40;99.90;;;;;;5009777;28;20197;-65
2023/12/19 09:47:57;;;;;;;10.33;9.53;;;7.40;99.90;;;;;;5005561;28;20280;-64
2023/12/19 09:50:27;;;;;;;11.03;10.13;;;7.40;99.90;;;;;;4991733;28;20197;-63
2023/12/19 09:52:57;;;;;;;11.70;10.60;;;7.40;99.90;;;;;;5009083;28;20197;-66
2023/12/19 09:55:28;;;;;;;11.17;10.27;;;7.40;99.90;;;;;;4980771;28;20254;-65
2023/12/19 09:57:57;;;;;;;10.97;10.10;;;7.40;99.90;;;;;;5009950;28;20695;-65
2023/12/19 10:00:25;;;;;;;10.87;9.77;;;7.40;99.90;;;;;;5009629;28;20197;-65
2023/12/19 10:02:53;;;;;;;11.43;10.53;;;7.40;99.90;;;;;;5008131;28;20223;-64
2023/12/19 10:05:21;;;;;;;13.13;10.43;;;7.50;99.90;;;;;;4978635;28;20208;-65
2023/12/19 10:07:48;;;;;;;12.33;11.23;;;7.50;99.90;;;;;;5009282;28;20195;-65
2023/12/19 10:10:15;;;;;;;11.77;10.67;;;7.50;99.90;;;;;;4992683;28;20274;-65
2023/12/19 10:12:49;;;;;;;12.53;11.40;;;7.50;99.90;;;;;;4990582;28;20200;-62
2023/12/19 10:15:25;;;;;;;12.70;11.43;;;7.50;99.90;;;;;;5009521;28;20200;-65
2023/12/19 10:18:12;;;;;;;17.30;13.40;;;7.50;99.90;;;;;;4991205;28;20561;-65
2023/12/19 10:20:40;;;;;;;12.40;11.30;;;7.40;99.90;;;;;;5007288;28;20751;-64
2023/12/19 10:23:09;;;;;;;11.37;10.47;;;7.40;99.90;;;;;;4991925;28;20259;-64
2023/12/19 10:25:36;;;;;;;12.83;11.73;;;7.40;99.90;;;;;;5009016;28;20197;-64
2023/12/19 10:28:13;;;;;;;12.27;11.13;;;7.40;99.90;;;;;;4986609;28;20764;-64
2023/12/19 10:30:42;;;;;;;12.97;11.67;;;7.50;99.90;;;;;;5008083;28;20209;-64
2023/12/19 10:33:12;;;;;;;11.57;10.57;;;7.40;99.90;;;;;;4992535;28;21080;-65
2023/12/19 10:35:44;;;;;;;12.20;11.10;;;7.40;99.90;;;;;;5008861;28;20196;-64
2023/12/19 10:38:12;;;;;;;11.63;10.73;;;7.40;99.90;;;;;;5008601;28;20368;-70
2023/12/19 10:40:39;;;;;;;11.07;10.07;;;7.50;99.90;;;;;;5009815;28;20263;-70
2023/12/19 10:43:06;;;;;;;12.00;10.83;;;7.40;99.90;;;;;;5008152;28;20205;-70
2023/12/19 10:45:36;;;;;;;10.60;9.67;;;7.50;99.90;;;;;;5006099;28;20574;-69
2023/12/19 10:48:04;;;;;;;12.27;11.07;;;7.50;99.90;;;;;;4993340;28;20232;-68
2023/12/19 10:50:31;;;;;;;11.60;10.50;;;7.40;99.90;;;;;;4994139;28;20189;-68
2023/12/19 10:53:05;;;;;;;12.10;10.83;;;7.40;99.90;;;;;;4987170;28;20194;-69
2023/12/19 10:55:41;;;;;;;11.90;10.80;;;7.40;99.90;;;;;;5009081;28;20197;-69
2023/12/19 10:58:12;;;;;;;11.87;10.80;;;7.40;99.90;;;;;;4990866;28;20239;-70
2023/12/19 11:00:41;;;;;;;11.27;10.27;;;7.40;99.90;;;;;;5006398;28;20724;-70
2023/12/19 11:03:23;;;;;;;11.30;10.30;;;7.40;99.90;;;;;;4971985;28;20287;-69
2023/12/19 11:05:54;;;;;;;10.13;9.27;;;7.40;99.90;;;;;;5008691;28;20193;-69
2023/12/19 11:08:22;;;;;;;10.70;9.70;;;7.40;99.90;;;;;;5009685;28;20753;-69
2023/12/19 11:11:27;;;;;;;10.73;8.30;;;7.40;99.90;;;;;;5009315;28;20196;-69
2023/12/19 11:13:56;;;;;;;9.83;9.03;;;7.40;99.90;;;;;;4964034;28;20274;-70
2023/12/19 11:16:44;;;;;;;10.33;9.50;;;7.40;99.90;;;;;;5008332;28;20499;-67
2023/12/19 11:19:30;;;;;;;9.93;9.13;;;7.40;99.90;;;;;;5001018;28;20213;-69
2023/12/19 11:22:19;;;;;;;9.57;8.83;;;7.40;99.90;;;;;;5009377;28;20216;-69
2023/12/19 11:25:01;;;;;;;8.50;7.90;;;7.40;99.90;;;;;;4979335;28;20205;-69
2023/12/19 11:27:42;;;;;;;8.80;8.10;;;7.40;99.90;;;;;;4998741;28;20600;-68
2023/12/19 11:30:48;;;;;;;9.40;8.60;;;7.40;99.90;;;;;;4958561;28;20610;-69
2023/12/19 11:33:28;;;;;;;9.00;8.30;;;7.40;99.90;;;;;;4911149;29;20204;-69
2023/12/19 11:36:09;;;;;;;8.60;8.00;;;7.40;99.90;;;;;;4912746;29;20207;-70
2023/12/19 11:38:36;;;;;;;8.97;8.10;;;7.40;99.90;;;;;;4946267;28;20209;-63
2023/12/19 11:41:04;;;;;;;8.77;8.13;;;7.50;99.90;;;;;;4988537;28;20206;-67
2023/12/19 11:43:31;;;;;;;9.20;8.40;;;7.50;99.90;;;;;;4970361;28;20205;-63
2023/12/19 11:46:04;;;;;;;8.77;8.13;;;7.40;99.90;;;;;;4989058;28;20508;-63
2023/12/19 11:48:36;;;;;;;9.17;8.50;;;7.40;99.90;;;;;;4987999;28;20901;-64
2023/12/19 11:51:07;;;;;;;9.13;8.33;;;7.50;99.90;;;;;;4971568;28;20276;-63
2023/12/19 11:53:39;;;;;;;9.77;8.97;;;7.50;99.90;;;;;;4989402;28;20293;-63
2023/12/19 11:56:08;;;;;;;8.73;8.13;;;7.50;99.90;;;;;;4974850;28;20594;-64
2023/12/19 11:58:36;;;;;;;8.60;8.00;;;7.50;99.90;;;;;;4999687;28;20708;-64
2023/12/19 12:01:04;;;;;;;8.97;8.37;;;7.60;99.90;;;;;;4974325;28;20296;-63
2023/12/19 12:03:32;;;;;;;9.17;8.57;;;7.60;99.90;;;;;;4974737;28;20217;-64
2023/12/19 12:05:59;;;;;;;9.37;8.67;;;7.50;99.90;;;;;;4979572;28;20197;-63
2023/12/19 12:08:26;;;;;;;9.37;8.73;;;7.50;99.90;;;;;;4974971;28;20198;-63
2023/12/19 12:11:05;;;;;;;9.13;8.53;;;7.60;99.90;;;;;;4964308;28;20198;-64
2023/12/19 12:13:34;;;;;;;8.43;7.93;;;7.60;99.90;;;;;;4974917;28;20205;-64
2023/12/19 12:16:02;;;;;;;9.37;8.57;;;7.60;99.90;;;;;;4991393;28;20209;-64
2023/12/19 12:18:32;;;;;;;8.87;8.27;;;7.60;99.90;;;;;;4979955;28;20194;-64
2023/12/19 12:21:07;;;;;;;8.67;8.10;;;7.60;99.90;;;;;;4991116;28;20300;-64
2023/12/19 12:23:35;;;;;;;8.53;7.90;;;7.60;99.90;;;;;;4992867;28;20283;-63
2023/12/19 12:26:05;;;;;;;8.10;7.60;;;7.60;99.90;;;;;;4972016;28;20186;-64
2023/12/19 12:28:36;;;;;;;8.40;7.83;;;7.50;99.90;;;;;;4972722;28;20256;-64
2023/12/19 12:31:05;;;;;;;8.03;7.53;;;7.60;99.90;;;;;;4985412;28;20194;-63
2023/12/19 12:33:36;;;;;;;7.83;7.33;;;7.70;99.90;;;;;;4988491;28;20209;-64
2023/12/19 12:36:10;;;;;;;8.03;7.47;;;7.70;99.90;;;;;;4990156;28;20583;-71
2023/12/19 12:38:38;;;;;;;7.97;7.47;;;7.70;99.90;;;;;;4980752;28;20321;-64
2023/12/19 12:41:07;;;;;;;7.90;7.40;;;7.70;99.90;;;;;;4989802;28;20194;-64
2023/12/19 12:43:39;;;;;;;7.60;7.20;;;7.70;99.90;;;;;;4988557;28;20378;-64
2023/12/19 12:46:07;;;;;;;8.07;7.57;;;7.70;99.90;;;;;;4981850;28;20196;-63
2023/12/19 12:48:41;;;;;;;7.90;7.40;;;7.60;99.90;;;;;;4980193;28;20276;-64
2023/12/19 12:51:09;;;;;;;8.00;7.40;;;7.60;99.90;;;;;;4990450;28;20645;-63
2023/12/19 12:53:36;;;;;;;7.43;7.03;;;7.50;99.90;;;;;;4990086;28;20344;-64